createdAt,value
2017-06-23T00:01:32.871Z,59.90
2017-06-23T00:04:00.426Z,59.70
2017-06-23T00:06:27.976Z,59.10
2017-06-23T00:08:55.503Z,58.60
2017-06-23T00:11:23.299Z,58.00
2017-06-23T00:13:51.200Z,57.50
2017-06-23T00:16:18.710Z,56.90
2017-06-23T00:18:46.217Z,56.30
2017-06-23T00:21:13.823Z,55.80
2017-06-23T00:23:41.364Z,55.50
2017-06-23T00:26:08.876Z,55.10
2017-06-23T00:28:36.542Z,55.20
2017-06-23T00:31:04.083Z,55.00
2017-06-23T00:33:31.591Z,55.00
2017-06-23T00:35:59.442Z,54.00
2017-06-23T00:38:26.947Z,53.50
2017-06-23T00:40:54.463Z,53.40
2017-06-23T00:43:22.172Z,53.20
2017-06-23T00:45:49.687Z,52.60
2017-06-23T00:48:17.228Z,52.30
2017-06-23T00:50:44.767Z,52.20
2017-06-23T00:53:12.331Z,51.90
2017-06-23T00:55:40.199Z,51.40
2017-06-23T00:58:07.715Z,51.40
2017-06-23T01:00:35.234Z,51.30
2017-06-23T01:03:03.067Z,50.30
2017-06-23T01:05:30.579Z,50.20
2017-06-23T01:07:58.090Z,49.80
2017-06-23T01:10:26.006Z,49.20
2017-06-23T01:12:53.537Z,49.20
2017-06-23T01:15:21.091Z,48.70
2017-06-23T01:17:49.418Z,48.60
2017-06-23T01:20:16.964Z,48.10
2017-06-23T01:22:44.471Z,47.90
2017-06-23T01:25:12.288Z,47.80
2017-06-23T01:27:39.795Z,48.30
2017-06-23T01:30:07.335Z,47.60
2017-06-23T01:32:35.288Z,46.90
2017-06-23T01:35:02.855Z,46.70
2017-06-23T01:37:30.362Z,45.80
2017-06-23T01:39:58.186Z,45.70
2017-06-23T01:42:25.699Z,45.40
2017-06-23T01:44:53.201Z,44.90
2017-06-23T01:47:21.021Z,44.60
2017-06-23T01:49:48.556Z,44.30
2017-06-23T01:52:16.068Z,44.60
2017-06-23T01:54:43.640Z,44.90
2017-06-23T01:57:11.174Z,45.00
2017-06-23T01:59:38.679Z,45.30
2017-06-23T02:02:06.519Z,45.40
2017-06-23T02:04:34.034Z,45.80
2017-06-23T02:07:01.742Z,46.10
2017-06-23T02:09:29.319Z,46.20
2017-06-23T02:11:56.887Z,46.30
2017-06-23T02:14:24.399Z,46.20
2017-06-23T02:16:52.214Z,46.60
2017-06-23T02:19:19.723Z,46.80
2017-06-23T02:21:47.229Z,47.00
2017-06-23T02:24:14.834Z,47.50
2017-06-23T02:26:42.355Z,47.70
2017-06-23T02:29:09.870Z,47.90
2017-06-23T02:31:37.695Z,49.00
2017-06-23T02:34:05.217Z,48.80
2017-06-23T02:36:32.727Z,48.90
2017-06-23T02:39:00.280Z,49.20
2017-06-23T02:41:27.799Z,49.50
2017-06-23T02:43:55.347Z,49.80
2017-06-23T02:46:23.615Z,50.10
2017-06-23T02:48:51.119Z,50.40
2017-06-23T02:51:18.626Z,50.50
2017-06-23T02:53:46.475Z,50.70
2017-06-23T02:56:13.992Z,51.20
2017-06-23T02:58:41.959Z,51.00
2017-06-23T03:01:09.568Z,51.30
2017-06-23T03:03:37.071Z,51.80
2017-06-23T03:06:04.888Z,52.20
2017-06-23T03:08:33.100Z,52.40
2017-06-23T03:11:01.375Z,52.30
2017-06-23T03:13:28.951Z,52.50
2017-06-23T03:15:56.467Z,52.60
2017-06-23T03:18:23.987Z,52.50
2017-06-23T03:20:51.687Z,52.60
2017-06-23T03:23:19.211Z,52.80
2017-06-23T03:25:46.718Z,53.30
2017-06-23T03:28:14.643Z,52.50
2017-06-23T03:30:42.160Z,52.40
2017-06-23T03:33:09.671Z,52.40
2017-06-23T03:35:37.235Z,54.20
2017-06-23T03:38:04.756Z,58.10
2017-06-23T03:40:32.258Z,61.30
2017-06-23T03:42:59.837Z,63.80
2017-06-23T03:45:27.352Z,63.70
2017-06-23T03:47:54.929Z,63.50
2017-06-23T03:50:22.811Z,63.40
2017-06-23T03:52:51.011Z,64.20
2017-06-23T03:55:18.539Z,64.80
2017-06-23T03:57:46.402Z,65.30
2017-06-23T04:00:13.995Z,63.70
2017-06-23T04:02:41.503Z,63.90
2017-06-23T04:05:09.071Z,64.80
2017-06-23T04:07:36.588Z,63.20
2017-06-23T04:10:04.148Z,62.70
2017-06-23T04:12:32.007Z,60.90
2017-06-23T04:14:59.526Z,61.20
2017-06-23T04:17:27.042Z,58.90
2017-06-23T04:19:54.596Z,59.20
2017-06-23T04:22:22.114Z,58.10
2017-06-23T04:24:49.659Z,56.50
2017-06-23T04:27:17.523Z,55.10
2017-06-23T04:29:45.031Z,55.20
2017-06-23T04:32:12.593Z,53.50
2017-06-23T04:34:40.157Z,53.10
2017-06-23T04:37:07.664Z,51.50
2017-06-23T04:39:35.180Z,51.50
2017-06-23T04:42:02.757Z,51.90
2017-06-23T04:44:30.275Z,51.80
2017-06-23T04:46:57.782Z,52.30
2017-06-23T04:49:25.616Z,51.80
2017-06-23T04:51:53.213Z,50.40
2017-06-23T04:54:20.732Z,50.40
2017-06-23T04:56:48.659Z,49.70
2017-06-23T04:59:16.165Z,49.30
2017-06-23T05:01:43.674Z,48.70
2017-06-23T05:04:11.268Z,48.00
2017-06-23T05:06:38.780Z,46.80
2017-06-23T05:09:06.284Z,46.40
2017-06-23T05:11:33.891Z,45.50
2017-06-23T05:14:01.399Z,46.20
2017-06-23T05:16:28.915Z,46.20
2017-06-23T05:18:56.717Z,44.40
2017-06-23T05:21:24.228Z,44.70
2017-06-23T05:23:52.007Z,45.30
2017-06-23T05:26:20.135Z,44.10
2017-06-23T05:28:47.683Z,44.00
2017-06-23T05:31:15.590Z,44.00
2017-06-23T05:33:43.964Z,43.00
2017-06-23T05:36:11.473Z,43.00
2017-06-23T05:38:39.289Z,43.80
2017-06-23T05:41:06.807Z,44.70
2017-06-23T05:43:34.446Z,43.90
2017-06-23T05:46:02.720Z,44.20
2017-06-23T05:48:30.236Z,44.50
2017-06-23T05:50:57.750Z,44.40
2017-06-23T05:53:25.322Z,45.00
2017-06-23T05:55:52.831Z,44.60
2017-06-23T05:58:20.359Z,44.50
2017-06-23T06:00:48.158Z,43.60
2017-06-23T06:03:15.751Z,44.00
2017-06-23T06:05:43.262Z,42.70
2017-06-23T06:08:10.818Z,42.20
2017-06-23T06:10:38.331Z,42.20
2017-06-23T06:13:05.835Z,41.60
2017-06-23T06:15:33.679Z,42.00
2017-06-23T06:18:01.206Z,42.80
2017-06-23T06:20:28.803Z,42.80
2017-06-23T06:22:56.679Z,42.60
2017-06-23T06:25:24.195Z,40.80
2017-06-23T06:27:51.698Z,39.90
2017-06-23T06:30:19.292Z,38.50
2017-06-23T06:32:46.895Z,37.80
2017-06-23T06:35:14.399Z,38.30
2017-06-23T06:37:41.970Z,37.60
2017-06-23T06:40:09.547Z,36.70
2017-06-23T06:42:37.055Z,36.40
2017-06-23T06:45:04.996Z,36.40
2017-06-23T06:47:32.507Z,38.10
2017-06-23T06:50:00.021Z,38.40
2017-06-23T06:52:27.855Z,38.60
2017-06-23T06:54:55.368Z,37.60
2017-06-23T06:57:22.906Z,37.20
2017-06-23T06:59:50.705Z,37.60
2017-06-23T07:02:18.231Z,35.90
2017-06-23T07:04:45.807Z,35.00
2017-06-23T07:07:13.432Z,36.20
2017-06-23T07:09:40.941Z,36.50
2017-06-23T07:12:08.460Z,34.80
2017-06-23T07:14:36.259Z,35.40
2017-06-23T07:17:03.775Z,35.30
2017-06-23T07:19:31.596Z,33.90
2017-06-23T07:21:59.164Z,33.70
2017-06-23T07:24:26.678Z,32.30
2017-06-23T07:26:54.191Z,32.50
2017-06-23T07:29:21.992Z,32.70
2017-06-23T07:31:49.503Z,32.50
2017-06-23T07:34:17.023Z,34.70
2017-06-23T07:36:44.583Z,36.70
2017-06-23T07:39:12.131Z,36.70
2017-06-23T07:41:39.670Z,35.80
2017-06-23T07:44:07.575Z,36.50
2017-06-23T07:46:35.092Z,37.60
2017-06-23T07:49:02.597Z,37.20
2017-06-23T07:51:30.407Z,37.20
2017-06-23T07:53:57.923Z,36.90
2017-06-23T07:56:25.431Z,36.80
2017-06-23T07:58:53.663Z,37.20
2017-06-23T08:01:21.221Z,38.40
2017-06-23T08:03:48.831Z,38.50
2017-06-23T08:06:16.424Z,38.40
2017-06-23T08:08:43.928Z,39.00
2017-06-23T08:11:11.435Z,39.90
2017-06-23T08:13:39.026Z,39.90
2017-06-23T08:16:06.538Z,40.40
2017-06-23T08:18:34.051Z,40.00
2017-06-23T08:21:01.611Z,40.90
2017-06-23T08:23:29.163Z,41.70
2017-06-23T08:25:56.693Z,40.40
2017-06-23T08:28:24.484Z,40.50
2017-06-23T08:30:52.064Z,40.80
2017-06-23T08:33:19.575Z,41.50
2017-06-23T08:35:47.125Z,42.20
2017-06-23T08:38:14.642Z,42.50
2017-06-23T08:40:42.604Z,42.40
2017-06-23T08:43:10.677Z,42.20
2017-06-23T08:45:38.196Z,40.70
2017-06-23T08:48:05.703Z,41.00
2017-06-23T08:50:33.265Z,41.20
2017-06-23T08:53:00.827Z,41.60
2017-06-23T08:55:28.350Z,41.50
2017-06-23T08:57:56.171Z,40.60
2017-06-23T09:00:23.687Z,41.60
2017-06-23T09:02:51.199Z,41.50
2017-06-23T09:05:19.063Z,42.00
2017-06-23T09:07:46.603Z,41.70
2017-06-23T09:10:14.131Z,42.30
2017-06-23T09:12:41.755Z,43.40
2017-06-23T09:15:09.266Z,43.70
2017-06-23T09:17:36.787Z,43.20
2017-06-23T09:20:04.364Z,42.80
2017-06-23T09:22:31.890Z,42.20
2017-06-23T09:24:59.424Z,42.50
2017-06-23T09:27:27.384Z,41.60
2017-06-23T09:29:54.891Z,41.10
2017-06-23T09:32:22.408Z,41.20
2017-06-23T09:34:50.215Z,40.70
2017-06-23T09:37:17.731Z,41.40
2017-06-23T09:39:45.343Z,42.00
2017-06-23T09:42:12.911Z,41.90
2017-06-23T09:44:40.428Z,42.40
2017-06-23T09:47:07.936Z,42.30
2017-06-23T09:49:35.843Z,41.30
2017-06-23T09:52:03.423Z,40.20
2017-06-23T09:54:30.955Z,41.40
2017-06-23T09:56:58.831Z,42.10
2017-06-23T09:59:26.359Z,41.80
2017-06-23T10:01:53.879Z,43.10
2017-06-23T10:04:21.540Z,43.40
2017-06-23T10:06:49.058Z,43.40
2017-06-23T10:09:16.562Z,42.60
2017-06-23T10:11:44.141Z,43.50
2017-06-23T10:14:11.655Z,43.70
2017-06-23T10:16:39.166Z,43.20
2017-06-23T10:19:07.093Z,42.80
2017-06-23T10:21:34.597Z,42.60
2017-06-23T10:24:02.100Z,41.90
2017-06-23T10:26:29.671Z,40.80
2017-06-23T10:28:57.175Z,40.40
2017-06-23T10:31:24.675Z,39.50
2017-06-23T10:33:52.488Z,39.80
2017-06-23T10:36:19.991Z,40.00
2017-06-23T10:38:47.536Z,39.20
2017-06-23T10:41:15.483Z,38.30
2017-06-23T10:43:43.682Z,39.70
2017-06-23T10:46:11.252Z,38.80
2017-06-23T10:48:39.061Z,38.70
2017-06-23T10:51:06.569Z,38.00
2017-06-23T10:53:34.083Z,37.60
2017-06-23T10:56:02.096Z,37.20
2017-06-23T10:58:29.635Z,36.30
2017-06-23T11:00:57.179Z,36.20
2017-06-23T11:03:25.051Z,34.90
2017-06-23T11:05:52.573Z,36.80
2017-06-23T11:08:20.078Z,37.40
2017-06-23T11:10:47.951Z,38.60
2017-06-23T11:13:15.638Z,39.00
2017-06-23T11:15:43.191Z,39.50
2017-06-23T11:18:11.098Z,40.10
2017-06-23T11:20:38.636Z,39.20
2017-06-23T11:23:06.143Z,38.60
2017-06-23T11:25:33.716Z,39.00
2017-06-23T11:28:01.279Z,39.30
2017-06-23T11:30:28.811Z,37.60
2017-06-23T11:32:56.988Z,38.20
2017-06-23T11:35:24.523Z,38.10
2017-06-23T11:37:52.026Z,38.10
2017-06-23T11:40:19.831Z,35.90
2017-06-23T11:42:47.348Z,36.40
2017-06-23T11:45:14.860Z,37.40
2017-06-23T11:47:42.428Z,36.30
2017-06-23T11:50:10.039Z,37.30
2017-06-23T11:52:37.547Z,38.40
2017-06-23T11:55:05.371Z,37.80
2017-06-23T11:57:32.920Z,38.40
2017-06-23T12:00:00.443Z,38.30
2017-06-23T12:02:28.223Z,37.60
2017-06-23T12:04:55.733Z,36.60
2017-06-23T12:07:23.240Z,36.40
2017-06-23T12:09:50.889Z,36.70
2017-06-23T12:12:18.483Z,36.70
2017-06-23T12:14:46.007Z,37.50
2017-06-23T12:17:13.823Z,36.60
2017-06-23T12:19:41.339Z,36.40
2017-06-23T12:22:08.843Z,37.00
2017-06-23T12:24:36.453Z,37.70
2017-06-23T12:27:03.971Z,37.80
2017-06-23T12:29:31.591Z,36.70
2017-06-23T12:31:59.165Z,36.60
2017-06-23T12:34:26.707Z,37.10
2017-06-23T12:36:54.331Z,37.70
2017-06-23T12:39:21.903Z,37.30
2017-06-23T12:41:49.425Z,36.30
2017-06-23T12:44:17.008Z,36.60
2017-06-23T12:46:44.660Z,35.70
2017-06-23T12:49:12.295Z,36.20
2017-06-23T12:51:39.964Z,36.70
2017-06-23T12:54:07.904Z,36.40
2017-06-23T12:56:36.215Z,36.30
2017-06-23T12:59:04.404Z,37.80
2017-06-23T13:01:31.911Z,37.60
2017-06-23T13:04:00.359Z,37.30
2017-06-23T13:06:28.275Z,37.40
2017-06-23T13:08:55.835Z,37.30
2017-06-23T13:11:24.167Z,36.10
2017-06-23T13:13:52.038Z,34.60
2017-06-23T13:16:19.835Z,35.00
2017-06-23T13:18:47.740Z,34.90
2017-06-23T13:21:15.311Z,34.20
2017-06-23T13:23:43.155Z,33.10
2017-06-23T13:26:10.884Z,31.90
2017-06-23T13:28:38.439Z,32.60
2017-06-23T13:31:05.964Z,33.10
2017-06-23T13:33:33.471Z,32.90
2017-06-23T13:36:01.299Z,31.90
2017-06-23T13:38:28.811Z,32.40
2017-06-23T13:40:56.331Z,32.80
2017-06-23T13:43:23.929Z,32.10
2017-06-23T13:45:51.439Z,32.70
2017-06-23T13:48:19.314Z,31.00
2017-06-23T13:50:47.543Z,31.00
2017-06-23T13:53:15.104Z,30.60
2017-06-23T13:55:43.033Z,30.90
2017-06-23T13:58:10.541Z,29.40
2017-06-23T14:00:38.059Z,29.50
2017-06-23T14:03:05.646Z,29.20
2017-06-23T14:05:33.155Z,29.90
2017-06-23T14:08:00.967Z,30.00
2017-06-23T14:10:28.471Z,29.70
2017-06-23T14:12:55.989Z,29.40
2017-06-23T14:15:23.862Z,30.60
2017-06-23T14:17:51.371Z,31.10
2017-06-23T14:20:18.916Z,31.00
2017-06-23T14:22:46.835Z,30.50
2017-06-23T14:25:14.395Z,31.20
2017-06-23T14:27:42.247Z,30.10
2017-06-23T14:30:09.802Z,29.80
2017-06-23T14:32:37.334Z,30.00
2017-06-23T14:35:04.899Z,30.50
2017-06-23T14:37:32.414Z,31.70
2017-06-23T14:39:59.965Z,31.10
2017-06-23T14:42:27.559Z,30.00
2017-06-23T14:44:55.596Z,30.00
2017-06-23T14:47:23.154Z,30.00
2017-06-23T14:49:50.998Z,30.00
2017-06-23T14:52:18.559Z,30.30
2017-06-23T14:54:46.088Z,30.40
2017-06-23T14:57:13.671Z,30.40
2017-06-23T14:59:41.481Z,29.90
2017-06-23T15:02:08.987Z,29.90
2017-06-23T15:04:36.799Z,30.40
2017-06-23T15:07:04.453Z,28.10
2017-06-23T15:09:32.477Z,28.40
2017-06-23T15:11:59.991Z,28.80
2017-06-23T15:14:27.501Z,29.00
2017-06-23T15:16:55.139Z,30.20
2017-06-23T15:19:22.671Z,31.20
2017-06-23T15:21:49.683Z,33.10
2017-06-23T15:24:17.527Z,33.10
2017-06-23T15:26:45.035Z,30.30
2017-06-23T15:29:12.543Z,31.20
2017-06-23T15:31:40.099Z,30.90
2017-06-23T15:34:07.688Z,30.60
2017-06-23T15:36:35.207Z,30.70
2017-06-23T15:39:03.152Z,31.60
2017-06-23T15:41:30.674Z,31.70
2017-06-23T15:43:58.400Z,31.50
2017-06-23T15:46:26.019Z,32.30
2017-06-23T15:48:53.562Z,32.30
2017-06-23T15:51:21.147Z,30.90
2017-06-23T15:53:49.043Z,29.60
2017-06-23T15:56:16.578Z,29.90
2017-06-23T15:58:44.115Z,30.50
2017-06-23T16:01:11.691Z,32.80
2017-06-23T16:03:39.277Z,32.80
2017-06-23T16:06:06.787Z,32.50
2017-06-23T16:08:34.591Z,31.90
2017-06-23T16:11:02.140Z,32.90
2017-06-23T16:13:29.660Z,32.70
2017-06-23T16:15:57.491Z,32.70
2017-06-23T16:18:25.059Z,32.20
2017-06-23T16:20:52.743Z,32.70
2017-06-23T16:23:20.434Z,32.90
2017-06-23T16:25:48.040Z,33.30
2017-06-23T16:28:15.575Z,34.10
2017-06-23T16:30:43.309Z,35.30
2017-06-23T16:33:10.815Z,35.90
2017-06-23T16:35:38.554Z,35.40
2017-06-23T16:38:06.179Z,35.80
2017-06-23T16:40:33.700Z,35.90
2017-06-23T16:43:01.231Z,35.80
2017-06-23T16:45:29.076Z,35.80
2017-06-23T16:47:56.584Z,36.30
2017-06-23T16:50:24.108Z,35.70
2017-06-23T16:52:51.699Z,34.70
2017-06-23T16:55:19.235Z,34.00
2017-06-23T16:57:46.751Z,33.70
2017-06-23T17:00:14.319Z,34.70
2017-06-23T17:02:41.927Z,34.00
2017-06-23T17:05:09.434Z,33.90
2017-06-23T17:07:37.040Z,34.40
2017-06-23T17:10:04.553Z,33.40
2017-06-23T17:12:32.071Z,32.20
2017-06-23T17:14:59.675Z,32.80
2017-06-23T17:17:27.241Z,33.40
2017-06-23T17:19:54.767Z,33.50
2017-06-23T17:22:22.516Z,33.90
2017-06-23T17:24:50.065Z,34.80
2017-06-23T17:27:17.575Z,35.00
2017-06-23T17:29:45.190Z,35.10
2017-06-23T17:32:12.720Z,34.80
2017-06-23T17:34:40.256Z,34.40
2017-06-23T17:37:08.079Z,34.30
2017-06-23T17:39:35.703Z,35.00
2017-06-23T17:42:02.992Z,34.90
2017-06-23T17:44:30.577Z,35.30
2017-06-23T17:46:58.083Z,35.90
2017-06-23T17:49:25.599Z,35.50
2017-06-23T17:51:53.221Z,35.30
2017-06-23T17:54:21.399Z,36.10
2017-06-23T17:56:48.951Z,36.30
2017-06-23T17:59:16.764Z,36.80
2017-06-23T18:01:44.282Z,36.00
2017-06-23T18:04:11.805Z,36.30
2017-06-23T18:06:39.416Z,36.80
2017-06-23T18:09:07.000Z,36.50
2017-06-23T18:11:35.410Z,36.90
2017-06-23T18:14:03.282Z,36.70
2017-06-23T18:16:30.791Z,37.00
2017-06-23T18:18:58.880Z,37.50
2017-06-23T18:21:26.423Z,37.80
2017-06-23T18:23:54.107Z,37.90
2017-06-23T18:26:21.791Z,37.50
2017-06-23T18:28:49.827Z,36.80
2017-06-23T18:31:17.387Z,37.70
2017-06-23T18:33:45.259Z,37.80
2017-06-23T18:36:12.774Z,37.80
2017-06-23T18:38:40.380Z,37.80
2017-06-23T18:41:08.251Z,38.00
2017-06-23T18:43:35.881Z,38.20
2017-06-23T18:46:03.547Z,38.90
2017-06-23T18:48:31.367Z,39.20
2017-06-23T18:50:58.904Z,39.70
2017-06-23T18:53:26.503Z,40.30
2017-06-23T18:55:54.087Z,40.70
2017-06-23T18:58:21.598Z,41.20
2017-06-23T19:00:49.249Z,41.50
2017-06-23T19:03:17.171Z,42.00
2017-06-23T19:05:44.959Z,42.50
2017-06-23T19:08:12.564Z,43.10
2017-06-23T19:10:40.426Z,43.50
2017-06-23T19:13:07.935Z,44.00
2017-06-23T19:15:35.475Z,44.30
2017-06-23T19:18:03.336Z,44.60
2017-06-23T19:20:30.880Z,45.10
2017-06-23T19:22:58.491Z,45.60
2017-06-23T19:25:26.391Z,45.70
2017-06-23T19:27:53.912Z,45.90
2017-06-23T19:30:21.435Z,46.40
2017-06-23T19:32:49.127Z,46.90
2017-06-23T19:35:16.675Z,47.00
2017-06-23T19:37:44.182Z,47.40
2017-06-23T19:40:11.747Z,47.60
2017-06-23T19:42:39.259Z,48.00
2017-06-23T19:45:07.724Z,48.10
2017-06-23T19:47:35.303Z,48.50
2017-06-23T19:50:02.826Z,48.60
2017-06-23T19:52:30.404Z,48.70
2017-06-23T19:54:57.946Z,49.20
2017-06-23T19:57:25.511Z,48.70
2017-06-23T19:59:53.020Z,48.70
2017-06-23T20:02:20.846Z,48.50
2017-06-23T20:04:48.382Z,48.30
2017-06-23T20:07:16.011Z,48.10
2017-06-23T20:09:43.574Z,48.40
2017-06-23T20:12:11.151Z,47.80
2017-06-23T20:14:38.667Z,47.60
2017-06-23T20:17:06.495Z,48.20
2017-06-23T20:19:34.140Z,48.40
2017-06-23T20:22:01.960Z,47.90
2017-06-23T20:24:29.758Z,47.40
2017-06-23T20:26:57.313Z,47.60
2017-06-23T20:29:24.836Z,47.50
2017-06-23T20:31:52.712Z,48.20
2017-06-23T20:34:20.251Z,48.40
2017-06-23T20:36:48.043Z,47.10
2017-06-23T20:39:15.611Z,47.10
2017-06-23T20:41:43.176Z,47.00
2017-06-23T20:44:10.838Z,47.90
2017-06-23T20:46:38.395Z,48.00
2017-06-23T20:49:06.048Z,47.90
2017-06-23T20:51:33.603Z,48.80
2017-06-23T20:54:01.176Z,48.70
2017-06-23T20:56:28.683Z,48.70
2017-06-23T20:58:56.415Z,48.80
2017-06-23T21:01:24.810Z,49.70
2017-06-23T21:03:52.322Z,49.40
2017-06-23T21:06:19.839Z,50.10
2017-06-23T21:08:48.558Z,50.70
2017-06-23T21:11:16.855Z,50.50
2017-06-23T21:13:44.424Z,50.80
2017-06-23T21:16:11.939Z,51.80
2017-06-23T21:18:39.750Z,51.10
2017-06-23T21:21:07.284Z,50.90
2017-06-23T21:23:34.956Z,51.40
2017-06-23T21:26:02.560Z,51.40
2017-06-23T21:28:30.073Z,51.40
2017-06-23T21:30:57.576Z,51.10
2017-06-23T21:33:25.133Z,51.60
2017-06-23T21:35:52.714Z,52.00
2017-06-23T21:38:20.248Z,52.10
2017-06-23T21:40:59.491Z,52.20
2017-06-23T21:43:26.999Z,52.40
2017-06-23T21:45:54.506Z,52.80
2017-06-23T21:48:22.169Z,52.70
2017-06-23T21:50:49.740Z,52.60
2017-06-23T21:53:17.299Z,52.80
2017-06-23T21:55:45.131Z,53.00
2017-06-23T21:58:12.638Z,53.10
2017-06-23T22:00:40.443Z,53.10
2017-06-23T22:03:08.006Z,53.20
2017-06-23T22:05:35.516Z,53.50
2017-06-23T22:08:03.130Z,53.40
2017-06-23T22:10:30.692Z,54.30
2017-06-23T22:12:58.280Z,53.80
2017-06-23T22:15:25.795Z,54.20
2017-06-23T22:17:53.384Z,54.30
2017-06-23T22:20:20.908Z,54.30
2017-06-23T22:22:49.130Z,54.40
2017-06-23T22:25:17.067Z,54.60
2017-06-23T22:27:44.575Z,55.00
2017-06-23T22:30:12.091Z,55.10
2017-06-23T22:32:39.696Z,55.30
2017-06-23T22:35:07.314Z,55.40
2017-06-23T22:37:35.062Z,55.40
2017-06-23T22:40:02.668Z,56.00
2017-06-23T22:42:30.185Z,56.40
2017-06-23T22:44:57.691Z,57.10
2017-06-23T22:47:25.337Z,56.80
2017-06-23T22:49:52.850Z,56.70
2017-06-23T22:52:20.372Z,57.10
2017-06-23T22:54:48.098Z,57.00
2017-06-23T22:57:15.663Z,57.20
2017-06-23T22:59:43.331Z,57.50
2017-06-23T23:02:10.979Z,57.70
2017-06-23T23:04:38.511Z,57.90
2017-06-23T23:07:06.028Z,58.40
2017-06-23T23:09:33.925Z,58.30
2017-06-23T23:12:01.446Z,58.50
2017-06-23T23:14:29.007Z,58.80
2017-06-23T23:16:56.583Z,59.30
2017-06-23T23:19:24.107Z,59.50
2017-06-23T23:21:51.914Z,59.80
2017-06-23T23:24:19.740Z,60.00
2017-06-23T23:26:47.335Z,60.20
2017-06-23T23:29:14.876Z,60.60
2017-06-23T23:31:42.447Z,60.60
2017-06-23T23:34:09.961Z,60.90
2017-06-23T23:36:37.497Z,61.10
2017-06-23T23:39:05.318Z,61.10
2017-06-23T23:41:33.139Z,61.50
2017-06-23T23:44:00.659Z,61.70
2017-06-23T23:46:28.226Z,62.00
2017-06-23T23:48:56.002Z,62.00
2017-06-23T23:51:23.522Z,62.30
2017-06-23T23:53:51.799Z,62.50
2017-06-23T23:56:19.432Z,62.60
2017-06-23T23:58:46.964Z,62.50
